Airport View

Enter AWOS ICAO identifier for current METAR.

ex. KFNL

KGCN 191854Z 22011G17KT 10SM CLR 26/01 A3023 RMK AO2 SLP145 T02610006

19 Jun 2019 19:49

Phone: 928-638-0672

Other Area AWOS: KCMR - KFLG - KKNB - KPGA

TAF KGCN 191730Z 1918/2018 25010G20KT P6SM FEW110 FM200200 24006KT P6SM SKC FM201700 22015G25KT P6SM SKC